createdAt,value
2019-01-20T00:02:29.953Z,15.73
2019-01-20T00:05:01.417Z,14.80
2019-01-20T00:07:33.903Z,14.13
2019-01-20T00:10:04.281Z,13.40
2019-01-20T00:12:35.424Z,13.93
2019-01-20T00:15:05.867Z,14.07
2019-01-20T00:17:36.190Z,14.03
2019-01-20T00:20:07.061Z,13.83
2019-01-20T00:22:37.390Z,13.57
2019-01-20T00:25:30.213Z,12.40
2019-01-20T00:28:00.590Z,14.03
2019-01-20T00:30:30.959Z,14.17
2019-01-20T00:33:01.393Z,13.97
2019-01-20T00:35:31.708Z,15.27
2019-01-20T00:38:02.905Z,12.80
2019-01-20T00:40:36.335Z,11.93
2019-01-20T00:43:07.474Z,11.87
2019-01-20T00:45:38.437Z,13.73
2019-01-20T00:48:09.585Z,13.10
2019-01-20T00:50:39.966Z,12.30
2019-01-20T00:53:10.635Z,14.83
2019-01-20T00:55:41.819Z,14.20
2019-01-20T00:58:15.258Z,14.07
2019-01-20T01:00:45.627Z,13.87
2019-01-20T01:03:15.993Z,13.90
2019-01-20T01:05:46.366Z,14.30
2019-01-20T01:08:17.092Z,12.37
2019-01-20T01:10:48.237Z,14.70
2019-01-20T01:13:18.612Z,14.53
2019-01-20T01:16:10.709Z,14.60
2019-01-20T01:18:41.088Z,13.30
2019-01-20T01:21:11.765Z,14.27
2019-01-20T01:23:45.655Z,13.37
2019-01-20T01:26:16.800Z,13.93
2019-01-20T01:28:47.935Z,14.27
2019-01-20T01:31:18.370Z,13.50
2019-01-20T01:33:49.848Z,13.67
2019-01-20T01:36:20.231Z,15.60
2019-01-20T01:38:50.605Z,14.83
2019-01-20T01:41:21.042Z,12.40
2019-01-20T01:43:51.642Z,14.90
2019-01-20T01:46:22.774Z,14.33
2019-01-20T01:48:53.419Z,14.13
2019-01-20T01:51:24.625Z,14.10
2019-01-20T01:53:54.978Z,14.27
2019-01-20T01:56:25.350Z,12.53
2019-01-20T01:58:56.791Z,13.57
2019-01-20T02:01:27.163Z,11.47
2019-01-20T02:03:57.833Z,11.80
2019-01-20T02:06:29.221Z,13.57
2019-01-20T02:09:06.744Z,11.73
2019-01-20T02:11:37.201Z,11.13
2019-01-20T02:14:08.551Z,10.60
2019-01-20T02:16:39.685Z,11.47
2019-01-20T02:19:10.903Z,12.33
2019-01-20T02:21:41.486Z,12.83
2019-01-20T02:24:11.865Z,12.87
2019-01-20T02:26:42.237Z,10.53
2019-01-20T02:29:12.607Z,12.20
2019-01-20T02:31:44.181Z,12.90
2019-01-20T02:34:14.610Z,12.20
2019-01-20T02:36:44.984Z,11.97
2019-01-20T02:39:15.370Z,12.33
2019-01-20T02:41:45.787Z,10.23
2019-01-20T02:44:16.154Z,12.53
2019-01-20T02:46:46.530Z,13.43
2019-01-20T02:49:17.135Z,12.30
2019-01-20T02:51:49.489Z,12.17
2019-01-20T02:54:19.905Z,10.67
2019-01-20T02:56:50.359Z,10.43
2019-01-20T02:59:22.775Z,11.23
2019-01-20T03:01:53.147Z,11.80
2019-01-20T03:04:25.690Z,11.13
2019-01-20T03:06:55.162Z,11.40
2019-01-20T03:09:26.556Z,10.73
2019-01-20T03:12:03.458Z,13.70
2019-01-20T03:14:28.153Z,10.30
2019-01-20T03:16:58.760Z,11.50
2019-01-20T03:19:32.018Z,12.13
2019-01-20T03:22:02.385Z,12.70
2019-01-20T03:24:33.531Z,9.20
2019-01-20T03:27:03.959Z,11.60
2019-01-20T03:29:34.336Z,11.10
2019-01-20T03:32:05.730Z,11.63
2019-01-20T03:34:36.167Z,11.03
2019-01-20T03:37:07.310Z,11.00
2019-01-20T03:39:37.674Z,9.80
2019-01-20T03:42:12.040Z,10.23
2019-01-20T03:44:41.698Z,12.73
2019-01-20T03:47:12.121Z,11.33
2019-01-20T03:49:46.585Z,10.90
2019-01-20T03:52:16.911Z,12.40
2019-01-20T03:54:47.437Z,11.57
2019-01-20T03:57:17.749Z,12.47
2019-01-20T04:02:31.391Z,11.90
2019-01-20T04:05:07.838Z,12.07
2019-01-20T04:07:38.226Z,12.27
2019-01-20T04:10:09.311Z,11.60
2019-01-20T04:12:39.738Z,12.00
2019-01-20T04:15:10.113Z,12.63
2019-01-20T04:17:40.492Z,11.67
2019-01-20T04:20:10.869Z,11.93
2019-01-20T04:22:41.244Z,12.00
2019-01-20T04:25:14.487Z,11.50
2019-01-20T04:27:44.817Z,11.97
2019-01-20T04:30:15.132Z,10.90
2019-01-20T04:32:45.545Z,11.77
2019-01-20T04:35:16.097Z,12.00
2019-01-20T04:37:46.466Z,11.53
2019-01-20T04:40:19.679Z,11.13
2019-01-20T04:42:50.077Z,11.80
2019-01-20T04:45:20.622Z,12.23
2019-01-20T04:47:52.025Z,11.77
2019-01-20T04:50:22.445Z,12.13
2019-01-20T04:52:52.825Z,11.43
2019-01-20T04:55:23.350Z,10.47
2019-01-20T04:57:53.778Z,11.50
2019-01-20T05:00:24.126Z,11.70
2019-01-20T05:03:13.936Z,11.50
2019-01-20T05:05:44.346Z,11.30
2019-01-20T05:08:14.718Z,10.50
2019-01-20T05:10:45.097Z,11.50
2019-01-20T05:13:15.519Z,10.53
2019-01-20T05:15:45.839Z,10.80
2019-01-20T05:18:23.581Z,10.13
2019-01-20T05:20:54.941Z,10.93
2019-01-20T05:23:26.080Z,10.90
2019-01-20T05:25:57.281Z,11.13
2019-01-20T05:28:30.928Z,11.30
2019-01-20T05:31:02.062Z,10.13
2019-01-20T05:33:32.376Z,11.00
2019-01-20T05:36:02.812Z,11.07
2019-01-20T05:38:34.193Z,11.73
2019-01-20T05:41:04.645Z,10.73
2019-01-20T05:43:35.177Z,11.57
2019-01-20T05:46:12.710Z,11.73
2019-01-20T05:48:43.136Z,11.40
2019-01-20T05:51:13.576Z,11.37
2019-01-20T05:53:44.723Z,11.83
2019-01-20T05:56:15.921Z,11.70
2019-01-20T05:58:53.603Z,11.90
2019-01-20T06:01:24.059Z,12.53
2019-01-20T06:03:54.625Z,13.20
2019-01-20T06:06:25.769Z,12.07
2019-01-20T06:08:56.976Z,13.57
2019-01-20T06:11:27.347Z,13.00
2019-01-20T06:13:58.544Z,14.73
2019-01-20T06:16:36.229Z,13.03
2019-01-20T06:19:10.751Z,13.47
2019-01-20T06:21:46.183Z,14.90
2019-01-20T06:24:16.593Z,12.97
2019-01-20T06:26:46.974Z,13.33
2019-01-20T06:29:17.539Z,13.60
2019-01-20T06:31:48.178Z,13.07
2019-01-20T06:34:19.519Z,11.87
2019-01-20T06:36:50.662Z,14.47
2019-01-20T06:39:21.048Z,14.87
2019-01-20T06:41:53.681Z,14.17
2019-01-20T06:44:24.104Z,13.40
2019-01-20T06:46:55.242Z,12.17
2019-01-20T06:49:26.388Z,13.37
2019-01-20T06:51:57.837Z,14.43
2019-01-20T06:54:28.973Z,11.83
2019-01-20T06:57:00.122Z,12.17
2019-01-20T06:59:31.369Z,13.50
2019-01-20T07:02:02.567Z,12.93
2019-01-20T07:04:52.314Z,13.33
2019-01-20T07:07:22.749Z,12.50
2019-01-20T07:09:53.112Z,12.00
2019-01-20T07:12:23.476Z,12.40
2019-01-20T07:14:54.665Z,14.07
2019-01-20T07:17:27.093Z,12.10
2019-01-20T07:19:58.488Z,12.70
2019-01-20T07:22:31.996Z,13.20
2019-01-20T07:25:21.799Z,14.93
2019-01-20T07:27:53.195Z,13.17
2019-01-20T07:30:23.515Z,12.73
2019-01-20T07:32:53.964Z,12.97
2019-01-20T07:35:24.410Z,12.90
2019-01-20T07:38:15.179Z,12.43
2019-01-20T07:40:45.602Z,11.43
2019-01-20T07:43:17.234Z,12.87
2019-01-20T07:46:08.336Z,13.60
2019-01-20T07:48:38.712Z,13.27
2019-01-20T07:51:09.103Z,13.93
2019-01-20T07:53:39.466Z,12.30
2019-01-20T07:56:09.845Z,11.93
2019-01-20T07:58:40.225Z,12.80
2019-01-20T08:01:10.803Z,12.83
2019-01-20T08:03:41.223Z,13.73
2019-01-20T08:06:11.605Z,11.70
2019-01-20T08:11:23.734Z,11.40
2019-01-20T08:13:54.168Z,10.07
2019-01-20T08:16:44.107Z,9.80
2019-01-20T08:19:14.544Z,9.80
2019-01-20T08:21:45.680Z,9.97
2019-01-20T08:24:16.827Z,10.73
2019-01-20T08:26:48.122Z,11.23
2019-01-20T08:29:18.368Z,11.17
2019-01-20T08:31:48.705Z,11.20
2019-01-20T08:34:19.153Z,11.90
2019-01-20T08:36:50.287Z,12.23
2019-01-20T08:39:21.471Z,12.70
2019-01-20T08:41:53.897Z,11.67
2019-01-20T08:44:24.270Z,12.70
2019-01-20T08:46:54.979Z,12.27
2019-01-20T08:49:26.376Z,15.80
2019-01-20T08:51:58.784Z,12.27
2019-01-20T08:54:29.154Z,11.53
2019-01-20T08:56:59.598Z,12.23
2019-01-20T08:59:32.235Z,11.60
2019-01-20T09:02:03.780Z,12.20
2019-01-20T09:04:34.932Z,13.40
2019-01-20T09:07:06.189Z,15.97
2019-01-20T09:09:36.556Z,13.50
2019-01-20T09:12:06.942Z,14.30
2019-01-20T09:14:37.328Z,13.10
2019-01-20T09:17:07.692Z,13.80
2019-01-20T09:19:38.139Z,12.33
2019-01-20T09:22:08.523Z,12.97
2019-01-20T09:24:38.841Z,12.97
2019-01-20T09:27:09.269Z,12.77
2019-01-20T09:29:40.896Z,13.17
2019-01-20T09:32:12.295Z,12.67
2019-01-20T09:34:43.741Z,12.53
2019-01-20T09:37:14.379Z,12.37
2019-01-20T09:39:45.701Z,14.33
2019-01-20T09:42:16.078Z,14.07
2019-01-20T09:44:46.696Z,14.80
2019-01-20T09:47:17.420Z,13.13
2019-01-20T09:49:47.986Z,11.80
2019-01-20T09:52:18.367Z,12.60
2019-01-20T09:54:49.573Z,12.43
2019-01-20T09:57:19.886Z,11.80
2019-01-20T09:59:51.473Z,11.97
2019-01-20T10:02:21.851Z,12.53
2019-01-20T10:04:52.220Z,11.57
2019-01-20T10:07:22.887Z,12.60
2019-01-20T10:09:53.972Z,13.50
2019-01-20T10:12:24.343Z,12.47
2019-01-20T10:14:55.509Z,12.73
2019-01-20T10:17:26.659Z,12.90
2019-01-20T10:19:57.028Z,12.50
2019-01-20T10:22:48.883Z,12.87
2019-01-20T10:25:19.200Z,11.30
2019-01-20T10:27:49.817Z,13.30
2019-01-20T10:33:10.711Z,12.60
2019-01-20T10:35:43.781Z,12.80
2019-01-20T10:38:15.918Z,12.93
2019-01-20T10:40:46.572Z,12.53
2019-01-20T10:43:17.658Z,10.93
2019-01-20T10:45:48.103Z,11.30
2019-01-20T10:48:18.677Z,11.83
2019-01-20T10:50:49.879Z,12.83
2019-01-20T10:53:20.261Z,13.27
2019-01-20T10:55:50.761Z,12.70
2019-01-20T10:58:21.082Z,12.60
2019-01-20T11:00:51.523Z,13.13
2019-01-20T11:03:22.873Z,13.10
2019-01-20T11:05:54.265Z,13.63
2019-01-20T11:08:24.885Z,13.37
2019-01-20T11:10:55.262Z,12.20
2019-01-20T11:13:25.636Z,12.23
2019-01-20T11:15:56.024Z,12.57
2019-01-20T11:18:26.339Z,12.70
2019-01-20T11:20:56.771Z,12.47
2019-01-20T11:23:27.147Z,11.93
2019-01-20T11:25:57.453Z,11.40
2019-01-20T11:28:28.889Z,10.93
2019-01-20T11:30:59.974Z,12.10
2019-01-20T11:33:30.538Z,14.33
2019-01-20T11:36:01.001Z,11.57
2019-01-20T11:38:32.140Z,12.53
2019-01-20T11:41:05.338Z,12.20
2019-01-20T11:43:36.445Z,10.33
2019-01-20T11:46:06.832Z,11.17
2019-01-20T11:48:37.217Z,10.40
2019-01-20T11:51:07.646Z,10.73
2019-01-20T11:53:38.039Z,11.23
2019-01-20T11:56:14.793Z,12.63
2019-01-20T11:58:47.222Z,12.90
2019-01-20T12:01:17.965Z,12.17
2019-01-20T12:03:49.108Z,16.37
2019-01-20T12:06:22.416Z,14.27
2019-01-20T12:08:53.561Z,13.10
2019-01-20T12:11:24.007Z,11.90
2019-01-20T12:13:54.386Z,12.47
2019-01-20T12:16:25.283Z,13.13
2019-01-20T12:18:55.660Z,14.20
2019-01-20T12:21:26.035Z,13.03
2019-01-20T12:23:56.467Z,14.20
2019-01-20T12:26:33.030Z,14.83
2019-01-20T12:29:03.473Z,15.23
2019-01-20T12:31:53.300Z,13.63
2019-01-20T12:34:24.488Z,15.13
2019-01-20T12:36:54.866Z,15.20
2019-01-20T12:39:25.445Z,15.30
2019-01-20T12:41:55.876Z,14.67
2019-01-20T12:44:31.582Z,17.33
2019-01-20T12:47:01.506Z,15.47
2019-01-20T12:49:32.589Z,14.67
2019-01-20T12:52:10.173Z,15.57
2019-01-20T12:54:40.741Z,15.27
2019-01-20T12:57:11.126Z,14.93
2019-01-20T12:59:41.579Z,15.00
2019-01-20T13:02:18.143Z,16.20
2019-01-20T13:04:56.507Z,14.63
2019-01-20T13:07:26.342Z,13.60
2019-01-20T13:09:56.661Z,14.67
2019-01-20T13:12:27.048Z,14.43
2019-01-20T13:14:57.640Z,14.00
2019-01-20T13:17:28.014Z,14.80
2019-01-20T13:19:58.338Z,13.47
2019-01-20T13:22:28.967Z,13.67
2019-01-20T13:24:59.520Z,15.10
2019-01-20T13:27:30.712Z,15.43
2019-01-20T13:30:03.320Z,13.13
2019-01-20T13:32:33.636Z,14.07
2019-01-20T13:35:04.075Z,13.67
2019-01-20T13:37:34.762Z,13.90
2019-01-20T13:40:05.321Z,16.27
2019-01-20T13:42:35.690Z,14.93
2019-01-20T13:45:06.075Z,14.77
2019-01-20T13:47:38.746Z,13.63
2019-01-20T13:50:09.129Z,13.43
2019-01-20T13:52:39.813Z,12.60
2019-01-20T13:55:30.571Z,13.80
2019-01-20T13:58:01.027Z,14.23
2019-01-20T14:00:31.349Z,14.73
2019-01-20T14:03:01.940Z,13.53
2019-01-20T14:05:32.332Z,13.80
2019-01-20T14:08:03.764Z,15.20
2019-01-20T14:10:40.283Z,15.07
2019-01-20T14:13:10.726Z,15.20
2019-01-20T14:15:41.874Z,16.63
2019-01-20T14:18:12.228Z,15.23
2019-01-20T14:20:45.677Z,14.83
2019-01-20T14:23:16.235Z,14.60
2019-01-20T14:25:46.645Z,13.87
2019-01-20T14:28:17.786Z,15.17
2019-01-20T14:30:48.928Z,15.40
2019-01-20T14:33:20.167Z,14.47
2019-01-20T14:38:35.731Z,14.13
2019-01-20T14:41:06.065Z,14.40
2019-01-20T14:43:37.414Z,13.97
2019-01-20T14:46:09.852Z,14.63
2019-01-20T14:48:40.412Z,15.30
2019-01-20T14:51:30.219Z,15.27
2019-01-20T14:54:00.594Z,15.60
2019-01-20T14:56:31.155Z,14.20
2019-01-20T14:59:01.535Z,14.73
2019-01-20T15:01:32.751Z,14.57
2019-01-20T15:04:03.191Z,14.53
2019-01-20T15:06:34.278Z,19.13
2019-01-20T15:09:04.842Z,19.57
2019-01-20T15:11:35.273Z,16.33
2019-01-20T15:14:05.595Z,16.00
2019-01-20T15:16:35.975Z,17.00
2019-01-20T15:19:06.590Z,15.70
2019-01-20T15:21:36.965Z,16.03
2019-01-20T15:24:11.677Z,15.70
2019-01-20T15:26:42.053Z,16.17
2019-01-20T15:29:13.196Z,17.70
2019-01-20T15:31:43.667Z,17.23
2019-01-20T15:34:14.044Z,17.30
2019-01-20T15:36:44.420Z,16.87
2019-01-20T15:39:14.869Z,18.10
2019-01-20T15:41:45.233Z,16.60
2019-01-20T15:44:16.370Z,18.70
2019-01-20T15:46:46.821Z,17.67
2019-01-20T15:49:17.971Z,16.93
2019-01-20T15:51:48.417Z,17.57
2019-01-20T15:54:18.798Z,17.80
2019-01-20T15:56:49.191Z,17.53
2019-01-20T15:59:25.703Z,16.33
2019-01-20T16:01:56.909Z,17.73
2019-01-20T16:04:28.326Z,17.87
2019-01-20T16:06:58.639Z,18.20
2019-01-20T16:09:29.820Z,18.03
2019-01-20T16:12:00.210Z,17.33
2019-01-20T16:14:34.615Z,16.97
2019-01-20T16:17:05.239Z,19.27
2019-01-20T16:19:37.665Z,19.47
2019-01-20T16:22:09.013Z,18.23
2019-01-20T16:24:39.438Z,16.67
2019-01-20T16:27:09.824Z,16.97
2019-01-20T16:29:40.254Z,19.30
2019-01-20T16:32:31.408Z,17.07
2019-01-20T16:35:01.098Z,16.03
2019-01-20T16:37:34.290Z,16.33
2019-01-20T16:40:04.724Z,17.33
2019-01-20T16:42:35.381Z,16.27
2019-01-20T16:45:07.806Z,17.93
2019-01-20T16:47:41.150Z,18.87
2019-01-20T16:50:12.724Z,22.87
2019-01-20T16:52:43.156Z,16.03
2019-01-20T16:55:13.469Z,15.93
2019-01-20T16:57:51.262Z,17.50
2019-01-20T17:00:40.686Z,16.20
2019-01-20T17:03:12.140Z,17.37
2019-01-20T17:05:43.294Z,16.73
2019-01-20T17:08:14.375Z,15.90
2019-01-20T17:11:05.948Z,16.03
2019-01-20T17:13:36.511Z,18.17
2019-01-20T17:16:06.842Z,18.70
2019-01-20T17:18:37.473Z,18.23
2019-01-20T17:21:07.841Z,18.73
2019-01-20T17:23:38.221Z,19.73
2019-01-20T17:26:08.641Z,18.13
2019-01-20T17:28:39.043Z,16.70
2019-01-20T17:31:10.183Z,16.43
2019-01-20T17:33:41.382Z,16.63
2019-01-20T17:36:11.938Z,17.03
2019-01-20T17:38:42.503Z,16.77
2019-01-20T17:41:14.720Z,17.50
2019-01-20T17:44:04.723Z,18.77
2019-01-20T17:46:35.325Z,18.33
2019-01-20T17:49:05.727Z,18.47
2019-01-20T17:51:36.105Z,17.77
2019-01-20T17:54:06.501Z,19.27
2019-01-20T17:56:36.917Z,17.07
2019-01-20T17:59:07.239Z,17.47
2019-01-20T18:01:37.808Z,19.23
2019-01-20T18:04:08.585Z,19.23
2019-01-20T18:06:39.919Z,20.43
2019-01-20T18:09:10.301Z,20.40
2019-01-20T18:11:46.873Z,20.60
2019-01-20T18:14:24.619Z,20.90
2019-01-20T18:16:55.780Z,19.17
2019-01-20T18:19:27.179Z,20.90
2019-01-20T18:21:59.805Z,20.57
2019-01-20T18:24:30.980Z,21.53
2019-01-20T18:27:03.731Z,21.50
2019-01-20T18:29:32.700Z,22.30
2019-01-20T18:32:03.130Z,23.47
2019-01-20T18:34:33.520Z,20.77
2019-01-20T18:37:05.941Z,20.40
2019-01-20T18:39:37.400Z,21.43
2019-01-20T18:42:08.756Z,20.97
2019-01-20T18:44:39.898Z,22.77
2019-01-20T18:47:10.531Z,22.10
2019-01-20T18:52:23.448Z,21.93
2019-01-20T18:54:54.101Z,21.40
2019-01-20T18:57:25.244Z,21.33
2019-01-20T18:59:56.451Z,21.53
2019-01-20T19:02:26.837Z,22.47
2019-01-20T19:04:57.198Z,21.87
2019-01-20T19:07:28.639Z,19.30
2019-01-20T19:10:20.430Z,20.27
2019-01-20T19:12:51.050Z,21.33
2019-01-20T19:15:22.206Z,19.77
2019-01-20T19:17:52.580Z,19.87
2019-01-20T19:20:26.121Z,20.33
2019-01-20T19:22:57.475Z,18.80
2019-01-20T19:25:27.836Z,20.33
2019-01-20T19:28:03.380Z,19.17
2019-01-20T19:30:33.814Z,19.80
2019-01-20T19:33:04.187Z,21.73
2019-01-20T19:35:34.552Z,19.00
2019-01-20T19:38:04.933Z,19.00
2019-01-20T19:40:35.307Z,19.00
2019-01-20T19:43:05.626Z,19.30
2019-01-20T19:45:36.067Z,19.37
2019-01-20T19:48:15.687Z,17.63
2019-01-20T19:50:38.845Z,18.50
2019-01-20T19:53:09.994Z,18.17
2019-01-20T19:55:40.604Z,17.17
2019-01-20T19:58:11.805Z,16.87
2019-01-20T20:00:43.221Z,17.60
2019-01-20T20:03:14.562Z,18.27
2019-01-20T20:05:45.783Z,17.83
2019-01-20T20:08:16.099Z,17.97
2019-01-20T20:10:46.760Z,18.50
2019-01-20T20:13:17.909Z,18.57
2019-01-20T20:15:48.984Z,19.07
2019-01-20T20:18:23.526Z,19.97
2019-01-20T20:20:54.941Z,19.53
2019-01-20T20:23:25.311Z,19.53
2019-01-20T20:25:55.689Z,19.63
2019-01-20T20:28:26.078Z,19.33
2019-01-20T20:30:56.936Z,19.63
2019-01-20T20:33:28.080Z,20.03
2019-01-20T20:35:59.214Z,18.53
2019-01-20T20:38:30.393Z,20.20
2019-01-20T20:41:00.776Z,19.87
2019-01-20T20:43:31.167Z,19.60
2019-01-20T20:46:03.637Z,18.83
2019-01-20T20:48:36.054Z,20.13
2019-01-20T20:51:06.438Z,20.17
2019-01-20T20:53:38.893Z,20.03
2019-01-20T20:56:09.461Z,19.77
2019-01-20T20:58:40.036Z,19.23
2019-01-20T21:01:11.213Z,19.23
2019-01-20T21:03:41.538Z,19.33
2019-01-20T21:06:12.934Z,19.77
2019-01-20T21:08:43.287Z,18.77
2019-01-20T21:11:14.435Z,18.10
2019-01-20T21:13:45.054Z,19.87
2019-01-20T21:16:16.241Z,20.07
2019-01-20T21:18:50.712Z,19.73
2019-01-20T21:21:21.149Z,19.97
2019-01-20T21:23:53.309Z,19.43
2019-01-20T21:26:23.748Z,19.93
2019-01-20T21:28:54.902Z,19.70
2019-01-20T21:31:25.350Z,19.00
2019-01-20T21:33:55.720Z,17.87
2019-01-20T21:36:26.092Z,15.63
2019-01-20T21:38:56.476Z,15.10
2019-01-20T21:41:26.853Z,14.73
2019-01-20T21:43:57.267Z,13.77
2019-01-20T21:46:27.645Z,14.50
2019-01-20T21:48:58.015Z,14.63
2019-01-20T21:51:28.436Z,14.93
2019-01-20T21:53:58.806Z,14.93
2019-01-20T21:56:51.205Z,14.50
2019-01-20T21:59:22.544Z,15.87
2019-01-20T22:01:54.706Z,16.80
2019-01-20T22:04:25.930Z,17.17
2019-01-20T22:06:56.312Z,16.47
2019-01-20T22:09:26.694Z,17.47
2019-01-20T22:11:57.142Z,17.47
2019-01-20T22:14:29.612Z,17.70
2019-01-20T22:17:00.756Z,17.43
2019-01-20T22:19:31.142Z,19.13
2019-01-20T22:22:01.561Z,17.90
2019-01-20T22:24:51.305Z,18.03
2019-01-20T22:27:21.727Z,18.47
2019-01-20T22:29:52.935Z,18.83
2019-01-20T22:32:23.321Z,19.33
2019-01-20T22:34:53.704Z,18.63
2019-01-20T22:37:24.065Z,20.73
2019-01-20T22:39:54.799Z,19.57
2019-01-20T22:42:25.115Z,18.73
2019-01-20T22:44:56.272Z,18.60
2019-01-20T22:47:27.402Z,18.87
2019-01-20T22:49:58.545Z,18.50
2019-01-20T22:52:28.899Z,20.93
2019-01-20T22:55:00.252Z,18.27
2019-01-20T22:57:30.460Z,17.87
2019-01-20T23:00:02.045Z,18.50
2019-01-20T23:02:51.792Z,19.57
2019-01-20T23:05:22.179Z,19.63
2019-01-20T23:10:35.546Z,19.50
2019-01-20T23:13:05.986Z,20.77
2019-01-20T23:15:56.751Z,19.27
2019-01-20T23:18:27.124Z,20.43
2019-01-20T23:20:57.449Z,19.97
2019-01-20T23:23:27.891Z,21.37
2019-01-20T23:25:58.298Z,20.17
2019-01-20T23:28:28.669Z,21.40
2019-01-20T23:31:06.420Z,20.20
2019-01-20T23:33:36.807Z,19.77
2019-01-20T23:36:07.327Z,19.17
2019-01-20T23:38:37.576Z,19.30
2019-01-20T23:41:07.896Z,19.67
2019-01-20T23:43:38.266Z,20.13
2019-01-20T23:46:08.690Z,18.40
2019-01-20T23:48:39.067Z,18.97
2019-01-20T23:51:09.385Z,20.30
2019-01-20T23:53:39.862Z,19.33
2019-01-20T23:56:29.557Z,18.53
2019-01-20T23:59:00.000Z,18.87
